createdAt,value
2023-02-27T00:00:37.922Z,99181.66
2023-02-27T00:03:30.415Z,99182.81
2023-02-27T00:06:22.569Z,99181.92
2023-02-27T00:09:14.719Z,99183.63
2023-02-27T00:12:08.188Z,99187.23
2023-02-27T00:15:00.309Z,99190.70
2023-02-27T00:17:52.618Z,99193.14
2023-02-27T00:20:44.804Z,99197.31
2023-02-27T00:23:37.074Z,99204.55
2023-02-27T00:26:29.252Z,99205.09
2023-02-27T00:29:21.310Z,99208.75
2023-02-27T00:32:13.473Z,99202.04
2023-02-27T00:35:06.183Z,99206.56
2023-02-27T00:37:58.472Z,99203.29
2023-02-27T00:40:50.616Z,99204.64
2023-02-27T00:43:42.750Z,99205.15
2023-02-27T00:46:34.861Z,99206.72
2023-02-27T00:49:17.657Z,99200.36
2023-02-27T00:52:10.365Z,99199.00
2023-02-27T00:55:02.454Z,99200.77
2023-02-27T00:57:54.557Z,99201.30
2023-02-27T01:00:46.972Z,99197.86
2023-02-27T01:03:39.077Z,99194.64
2023-02-27T01:06:31.251Z,99192.62
2023-02-27T01:09:24.939Z,99194.27
2023-02-27T01:12:17.179Z,99196.02
2023-02-27T01:15:11.561Z,99202.59
2023-02-27T01:17:49.249Z,99200.56
2023-02-27T01:20:41.310Z,99200.05
2023-02-27T01:23:33.576Z,99194.89
2023-02-27T01:26:25.739Z,99196.83
2023-02-27T01:29:17.861Z,99198.89
2023-02-27T01:31:53.043Z,99203.05
2023-02-27T01:34:45.444Z,99204.16
2023-02-27T01:37:37.567Z,99204.91
2023-02-27T01:40:30.750Z,99204.66
2023-02-27T01:43:24.286Z,99209.02
2023-02-27T01:46:16.337Z,99217.48
2023-02-27T01:49:01.654Z,99223.53
2023-02-27T01:51:56.072Z,99222.02
2023-02-27T01:54:48.473Z,99226.20
2023-02-27T01:57:42.540Z,99230.19
2023-02-27T02:00:19.212Z,99233.84
2023-02-27T02:03:19.564Z,99235.55
2023-02-27T02:06:12.445Z,99236.38
2023-02-27T02:09:06.467Z,99237.25
2023-02-27T02:12:00.458Z,99236.61
2023-02-27T02:14:53.601Z,99236.60
2023-02-27T02:17:54.949Z,99244.35
2023-02-27T02:21:24.007Z,99250.25
2023-02-27T02:24:59.244Z,99250.05
2023-02-27T02:28:04.152Z,99262.12
2023-02-27T02:31:21.705Z,99263.17
2023-02-27T02:34:42.323Z,99262.06
2023-02-27T02:37:55.277Z,99265.80
2023-02-27T02:40:53.557Z,99271.96
2023-02-27T02:43:56.735Z,99273.50
2023-02-27T02:46:57.652Z,99275.76
2023-02-27T02:49:55.872Z,99282.66
2023-02-27T02:52:52.925Z,99284.93
2023-02-27T02:55:48.694Z,99284.39
2023-02-27T02:58:47.569Z,99290.06
2023-02-27T03:01:23.288Z,99291.96
2023-02-27T03:04:19.568Z,99289.55
2023-02-27T03:07:18.309Z,99285.25
2023-02-27T03:10:16.660Z,99286.13
2023-02-27T03:13:13.048Z,99284.05
2023-02-27T03:16:11.332Z,99281.97
2023-02-27T03:19:09.117Z,99284.22
2023-02-27T03:21:53.040Z,99285.79
2023-02-27T03:24:50.173Z,99291.02
2023-02-27T03:27:47.419Z,99284.65
2023-02-27T03:30:36.775Z,99279.50
2023-02-27T03:33:32.955Z,99277.58
2023-02-27T03:36:33.327Z,99277.05
2023-02-27T03:39:38.026Z,99277.20
2023-02-27T03:42:37.947Z,99283.54
2023-02-27T03:45:34.908Z,99284.92
2023-02-27T03:48:27.119Z,99287.83
2023-02-27T03:51:05.025Z,99296.02
2023-02-27T03:54:03.992Z,99297.16
2023-02-27T03:57:01.727Z,99294.23
2023-02-27T03:59:54.064Z,99295.04
2023-02-27T04:02:38.102Z,99298.23
2023-02-27T04:05:18.749Z,99302.49
2023-02-27T04:08:41.028Z,99303.52
2023-02-27T04:11:47.764Z,99305.08
2023-02-27T04:14:57.498Z,99306.77
2023-02-27T04:17:57.721Z,99313.83
2023-02-27T04:20:55.819Z,99316.73
2023-02-27T04:23:57.644Z,99323.08
2023-02-27T04:26:55.655Z,99326.02
2023-02-27T04:29:54.285Z,99331.87
2023-02-27T04:32:53.370Z,99332.39
2023-02-27T04:35:52.048Z,99333.77
2023-02-27T04:38:50.709Z,99337.91
2023-02-27T04:41:48.189Z,99339.23
2023-02-27T04:44:26.628Z,99342.33
2023-02-27T04:47:20.965Z,99344.90
2023-02-27T04:50:16.421Z,99342.00
2023-02-27T04:53:14.404Z,99339.24
2023-02-27T04:56:09.696Z,99343.02
2023-02-27T04:59:06.925Z,99344.39
2023-02-27T05:01:48.180Z,99347.08
2023-02-27T05:04:44.634Z,99342.39
2023-02-27T05:07:42.006Z,99347.91
2023-02-27T05:10:38.080Z,99346.73
2023-02-27T05:13:33.400Z,99347.73
2023-02-27T05:16:33.264Z,99348.05
2023-02-27T05:19:25.760Z,99351.50
2023-02-27T05:22:29.041Z,99361.83
2023-02-27T05:25:29.270Z,99363.02
2023-02-27T05:28:08.608Z,99374.38
2023-02-27T05:31:08.567Z,99373.52
2023-02-27T05:34:06.429Z,99379.74
2023-02-27T05:37:04.394Z,99382.30
2023-02-27T05:39:56.538Z,99383.50
2023-02-27T05:42:42.628Z,99386.77
2023-02-27T05:45:40.415Z,99387.80
2023-02-27T05:48:37.435Z,99390.89
2023-02-27T05:51:34.697Z,99395.17
2023-02-27T05:54:33.698Z,99397.27
2023-02-27T05:57:24.384Z,99401.09
2023-02-27T06:00:22.300Z,99404.84
2023-02-27T06:03:01.497Z,99405.59
2023-02-27T06:05:55.427Z,99407.45
2023-02-27T06:08:47.962Z,99407.80
2023-02-27T06:11:40.046Z,99405.30
2023-02-27T06:14:32.032Z,99408.39
2023-02-27T06:17:24.230Z,99407.35
2023-02-27T06:20:16.537Z,99410.25
2023-02-27T06:23:09.090Z,99415.45
2023-02-27T06:26:01.319Z,99419.33
2023-02-27T06:28:53.375Z,99417.10
2023-02-27T06:31:28.308Z,99413.88
2023-02-27T06:34:16.580Z,99419.00
2023-02-27T06:37:08.654Z,99419.30
2023-02-27T06:40:00.757Z,99421.38
2023-02-27T06:42:52.926Z,99422.39
2023-02-27T06:45:45.089Z,99423.07
2023-02-27T06:48:37.151Z,99421.14
2023-02-27T06:51:29.826Z,99425.89
2023-02-27T06:54:08.047Z,99426.02
2023-02-27T06:57:00.181Z,99429.58
2023-02-27T06:59:52.471Z,99430.11
2023-02-27T07:02:44.706Z,99430.67
2023-02-27T07:05:36.945Z,99434.75
2023-02-27T07:08:29.284Z,99435.20
2023-02-27T07:11:21.406Z,99443.63
2023-02-27T07:14:15.289Z,99446.38
2023-02-27T07:17:07.444Z,99445.14
2023-02-27T07:19:59.632Z,99448.94
2023-02-27T07:22:51.696Z,99452.48
2023-02-27T07:25:26.646Z,99451.42
2023-02-27T07:28:19.109Z,99452.77
2023-02-27T07:31:11.321Z,99448.06
2023-02-27T07:34:03.489Z,99448.23
2023-02-27T07:36:55.630Z,99450.05
2023-02-27T07:39:47.725Z,99451.02
2023-02-27T07:42:39.902Z,99450.54
2023-02-27T07:45:32.221Z,99452.14
2023-02-27T07:48:24.311Z,99450.77
2023-02-27T07:50:59.397Z,99453.91
2023-02-27T07:53:51.559Z,99460.78
2023-02-27T07:56:43.917Z,99463.16
2023-02-27T07:59:21.171Z,99466.74
2023-02-27T08:02:14.393Z,99466.89
2023-02-27T08:04:49.529Z,99468.70
2023-02-27T08:07:41.663Z,99467.31
2023-02-27T08:10:23.970Z,99470.64
2023-02-27T08:13:04.980Z,99474.36
2023-02-27T08:15:37.071Z,99472.01
2023-02-27T08:18:30.265Z,99478.58
2023-02-27T08:21:22.359Z,99481.98
2023-02-27T08:24:14.521Z,99486.89
2023-02-27T08:27:06.631Z,99491.71
2023-02-27T08:29:58.744Z,99499.61
2023-02-27T08:32:34.389Z,99499.14
2023-02-27T08:35:26.744Z,99500.68
2023-02-27T08:38:01.726Z,99500.75
2023-02-27T08:40:54.460Z,99503.67
2023-02-27T08:43:46.591Z,99507.17
2023-02-27T08:46:38.822Z,99509.58
2023-02-27T08:49:30.940Z,99518.77
2023-02-27T08:52:11.693Z,99517.64
2023-02-27T08:55:03.865Z,99520.98
2023-02-27T08:57:56.160Z,99520.83
2023-02-27T09:00:48.556Z,99521.29
2023-02-27T09:03:29.535Z,99520.77
2023-02-27T09:06:21.683Z,99528.00
2023-02-27T09:09:03.710Z,99530.60
2023-02-27T09:11:46.205Z,99534.34
2023-02-27T09:14:39.546Z,99536.98
2023-02-27T09:17:31.684Z,99540.94
2023-02-27T09:20:24.034Z,99542.41
2023-02-27T09:23:16.157Z,99541.20
2023-02-27T09:26:09.147Z,99544.19
2023-02-27T09:29:01.262Z,99543.48
2023-02-27T09:31:53.437Z,99540.06
2023-02-27T09:34:45.744Z,99541.05
2023-02-27T09:37:26.522Z,99535.20
2023-02-27T09:40:25.273Z,99527.89
2023-02-27T09:43:21.538Z,99536.35
2023-02-27T09:45:57.074Z,99533.05
2023-02-27T09:48:51.895Z,99536.80
2023-02-27T09:51:43.965Z,99539.78
2023-02-27T09:54:18.931Z,99535.48
2023-02-27T09:57:01.736Z,99532.15
2023-02-27T09:59:57.836Z,99532.19
2023-02-27T10:03:02.080Z,99531.84
2023-02-27T10:05:43.964Z,99534.17
2023-02-27T10:08:45.025Z,99532.27
2023-02-27T10:11:45.599Z,99532.13
2023-02-27T10:14:43.725Z,99533.45
2023-02-27T10:17:40.166Z,99534.63
2023-02-27T10:20:35.138Z,99534.95
2023-02-27T10:23:34.836Z,99540.23
2023-02-27T10:26:30.055Z,99542.70
2023-02-27T10:29:19.022Z,99547.99
2023-02-27T10:31:58.806Z,99546.67
2023-02-27T10:34:42.444Z,99548.42
2023-02-27T10:37:37.064Z,99547.02
2023-02-27T10:40:30.186Z,99550.95
2023-02-27T10:43:23.638Z,99548.79
2023-02-27T10:46:01.873Z,99550.67
2023-02-27T10:48:37.291Z,99551.45
2023-02-27T10:51:31.276Z,99550.80
2023-02-27T10:54:27.096Z,99552.86
2023-02-27T10:57:27.729Z,99553.66
2023-02-27T11:00:25.336Z,99550.77
2023-02-27T11:03:28.807Z,99554.39
2023-02-27T11:06:26.798Z,99559.52
2023-02-27T11:09:20.459Z,99557.44
2023-02-27T11:12:28.836Z,99560.95
2023-02-27T11:15:25.611Z,99554.72
2023-02-27T11:18:29.157Z,99553.89
2023-02-27T11:21:24.672Z,99550.80
2023-02-27T11:24:22.698Z,99550.91
2023-02-27T11:27:26.643Z,99551.01
2023-02-27T11:30:28.116Z,99552.51
2023-02-27T11:33:22.622Z,99557.60
2023-02-27T11:36:05.830Z,99557.20
2023-02-27T11:38:58.567Z,99551.11
2023-02-27T11:41:51.783Z,99548.90
2023-02-27T11:44:53.193Z,99551.27
2023-02-27T11:47:49.411Z,99554.66
2023-02-27T11:50:56.879Z,99553.34
2023-02-27T11:54:09.606Z,99553.08
2023-02-27T11:56:48.371Z,99554.19
2023-02-27T11:59:48.105Z,99549.20
2023-02-27T12:02:48.794Z,99554.02
2023-02-27T12:05:45.667Z,99553.84
2023-02-27T12:08:43.003Z,99558.85
2023-02-27T12:11:38.649Z,99557.27
2023-02-27T12:14:40.983Z,99559.51
2023-02-27T12:17:40.043Z,99561.80
2023-02-27T12:20:40.233Z,99560.71
2023-02-27T12:23:23.480Z,99563.19
2023-02-27T12:26:22.475Z,99563.30
2023-02-27T12:29:24.021Z,99568.79
2023-02-27T12:32:24.299Z,99569.85
2023-02-27T12:35:20.954Z,99572.56
2023-02-27T12:38:15.880Z,99576.00
2023-02-27T12:41:12.765Z,99576.69
2023-02-27T12:44:33.042Z,99581.74
2023-02-27T12:47:30.923Z,99580.82
2023-02-27T12:50:24.804Z,99582.60
2023-02-27T12:53:24.273Z,99586.49
2023-02-27T12:56:20.000Z,99584.60
2023-02-27T12:59:31.581Z,99578.49
2023-02-27T13:02:52.819Z,99586.09
2023-02-27T13:05:54.668Z,99590.16
2023-02-27T13:09:04.754Z,99592.39
2023-02-27T13:12:04.662Z,99592.45
2023-02-27T13:14:52.122Z,99595.44
2023-02-27T13:17:49.785Z,99596.06
2023-02-27T13:20:51.003Z,99597.20
2023-02-27T13:23:58.278Z,99591.73
2023-02-27T13:26:55.498Z,99592.03
2023-02-27T13:29:56.661Z,99599.36
2023-02-27T13:32:43.953Z,99597.09
2023-02-27T13:35:46.802Z,99598.27
2023-02-27T13:38:46.982Z,99597.63
2023-02-27T13:41:41.024Z,99597.59
2023-02-27T13:44:50.354Z,99594.36
2023-02-27T13:47:48.700Z,99592.95
2023-02-27T13:50:54.083Z,99599.23
2023-02-27T13:53:46.542Z,99599.65
2023-02-27T13:56:25.410Z,99601.83
2023-02-27T13:59:23.665Z,99604.18
2023-02-27T14:02:46.558Z,99603.52
2023-02-27T14:05:39.150Z,99602.94
2023-02-27T14:08:24.315Z,99604.90
2023-02-27T14:11:21.889Z,99606.15
2023-02-27T14:14:33.895Z,99610.41
2023-02-27T14:17:13.182Z,99613.41
2023-02-27T14:19:59.656Z,99610.77
2023-02-27T14:22:41.632Z,99615.20
2023-02-27T14:25:32.210Z,99616.28
2023-02-27T14:28:31.321Z,99619.10
2023-02-27T14:31:25.370Z,99620.95
2023-02-27T14:34:19.534Z,99623.77
2023-02-27T14:37:17.146Z,99628.58
2023-02-27T14:39:57.280Z,99633.42
2023-02-27T14:42:58.966Z,99634.77
2023-02-27T14:45:51.766Z,99637.52
2023-02-27T14:48:44.318Z,99641.45
2023-02-27T14:51:38.523Z,99641.72
2023-02-27T14:54:30.666Z,99648.83
2023-02-27T14:57:05.832Z,99656.19
2023-02-27T14:59:48.869Z,99655.74
2023-02-27T15:02:33.212Z,99657.27
2023-02-27T15:05:24.131Z,99657.70
2023-02-27T15:08:21.711Z,99656.26
2023-02-27T15:11:18.372Z,99657.46
2023-02-27T15:14:25.257Z,99663.27
2023-02-27T15:17:22.133Z,99662.98
2023-02-27T15:20:29.701Z,99665.45
2023-02-27T15:23:27.706Z,99668.77
2023-02-27T15:26:19.887Z,99669.93
2023-02-27T15:29:22.915Z,99669.19
2023-02-27T15:32:30.635Z,99675.59
2023-02-27T15:35:26.796Z,99676.48
2023-02-27T15:38:30.580Z,99677.58
2023-02-27T15:41:22.943Z,99680.17
2023-02-27T15:44:16.517Z,99681.21
2023-02-27T15:47:11.914Z,99687.08
2023-02-27T15:50:11.273Z,99690.41
2023-02-27T15:52:50.505Z,99690.66
2023-02-27T15:55:45.599Z,99692.38
2023-02-27T15:58:26.331Z,99700.99
2023-02-27T16:01:22.382Z,99705.80
2023-02-27T16:04:20.848Z,99708.34
2023-02-27T16:07:06.483Z,99713.24
2023-02-27T16:10:03.964Z,99716.14
2023-02-27T16:12:56.550Z,99721.19
2023-02-27T16:16:01.689Z,99722.63
2023-02-27T16:18:50.731Z,99728.64
2023-02-27T16:21:23.922Z,99731.17
2023-02-27T16:24:32.605Z,99734.13
2023-02-27T16:27:29.028Z,99734.69
2023-02-27T16:30:21.570Z,99740.86
2023-02-27T16:33:03.807Z,99742.34
2023-02-27T16:36:18.690Z,99739.30
2023-02-27T16:38:52.397Z,99744.71
2023-02-27T16:41:28.343Z,99746.94
2023-02-27T16:44:21.537Z,99747.08
2023-02-27T16:47:13.813Z,99752.19
2023-02-27T16:50:11.225Z,99751.61
2023-02-27T16:53:03.456Z,99758.00
2023-02-27T16:55:46.275Z,99762.30
2023-02-27T16:58:38.478Z,99766.02
2023-02-27T17:01:32.924Z,99772.57
2023-02-27T17:04:27.194Z,99772.52
2023-02-27T17:07:20.163Z,99773.91
2023-02-27T17:10:15.148Z,99770.96
2023-02-27T17:13:07.221Z,99773.36
2023-02-27T17:15:59.345Z,99778.91
2023-02-27T17:18:51.434Z,99778.23
2023-02-27T17:21:32.950Z,99779.69
2023-02-27T17:24:25.377Z,99779.78
2023-02-27T17:27:06.666Z,99782.33
2023-02-27T17:29:58.920Z,99784.30
2023-02-27T17:32:51.110Z,99788.02
2023-02-27T17:35:43.382Z,99790.58
2023-02-27T17:38:36.314Z,99790.85
2023-02-27T17:41:13.327Z,99794.52
2023-02-27T17:44:05.820Z,99795.80
2023-02-27T17:46:57.969Z,99801.90
2023-02-27T17:49:50.487Z,99800.64
2023-02-27T17:52:42.809Z,99797.60
2023-02-27T17:55:25.916Z,99803.64
2023-02-27T17:58:18.755Z,99806.64
2023-02-27T18:01:20.325Z,99805.17
2023-02-27T18:04:13.230Z,99807.02
2023-02-27T18:07:05.531Z,99810.09
2023-02-27T18:09:57.667Z,99810.92
2023-02-27T18:12:49.839Z,99815.42
2023-02-27T18:15:27.436Z,99820.77
2023-02-27T18:18:19.724Z,99824.24
2023-02-27T18:21:16.266Z,99830.16
2023-02-27T18:24:09.828Z,99833.62
2023-02-27T18:26:48.156Z,99836.86
2023-02-27T18:29:40.493Z,99840.43
2023-02-27T18:32:32.816Z,99846.20
2023-02-27T18:35:25.711Z,99844.58
2023-02-27T18:38:17.895Z,99854.48
2023-02-27T18:41:01.500Z,99856.91
2023-02-27T18:43:53.776Z,99859.54
2023-02-27T18:46:46.110Z,99860.17
2023-02-27T18:49:38.207Z,99864.09
2023-02-27T18:52:30.894Z,99865.65
2023-02-27T18:55:14.688Z,99867.54
2023-02-27T18:58:07.043Z,99866.70
2023-02-27T19:01:00.198Z,99870.97
2023-02-27T19:03:53.258Z,99874.43
2023-02-27T19:06:45.589Z,99875.34
2023-02-27T19:09:37.940Z,99869.65
2023-02-27T19:12:30.063Z,99870.81
2023-02-27T19:15:14.029Z,99875.76
2023-02-27T19:18:06.908Z,99871.20
2023-02-27T19:21:02.815Z,99873.52
2023-02-27T19:23:55.169Z,99873.79
2023-02-27T19:26:47.470Z,99878.30
2023-02-27T19:29:40.324Z,99881.89
2023-02-27T19:32:17.764Z,99879.34
2023-02-27T19:35:14.235Z,99883.38
2023-02-27T19:38:06.452Z,99885.73
2023-02-27T19:41:04.004Z,99883.11
2023-02-27T19:43:57.126Z,99886.70
2023-02-27T19:46:51.472Z,99886.31
2023-02-27T19:49:43.774Z,99886.92
2023-02-27T19:52:37.303Z,99891.36
2023-02-27T19:55:29.614Z,99890.52
2023-02-27T19:58:21.715Z,99894.02
2023-02-27T20:01:03.292Z,99896.12
2023-02-27T20:03:55.900Z,99896.78
2023-02-27T20:06:50.761Z,99900.26
2023-02-27T20:09:42.944Z,99902.19
2023-02-27T20:12:35.054Z,99904.70
2023-02-27T20:15:27.173Z,99908.16
2023-02-27T20:18:19.216Z,99905.94
2023-02-27T20:21:13.599Z,99906.67
2023-02-27T20:24:06.409Z,99907.39
2023-02-27T20:26:54.983Z,99909.84
2023-02-27T20:29:48.319Z,99907.38
2023-02-27T20:32:40.618Z,99911.91
2023-02-27T20:35:33.296Z,99912.00
2023-02-27T20:38:25.364Z,99914.66
2023-02-27T20:41:18.936Z,99913.65
2023-02-27T20:44:12.919Z,99916.11
2023-02-27T20:47:07.169Z,99915.83
2023-02-27T20:49:40.948Z,99919.98
2023-02-27T20:52:21.871Z,99926.27
2023-02-27T20:55:14.306Z,99930.27
2023-02-27T20:58:06.648Z,99927.36
2023-02-27T21:01:04.446Z,99926.99
2023-02-27T21:03:46.645Z,99928.38
2023-02-27T21:06:38.973Z,99928.73
2023-02-27T21:09:31.776Z,99931.02
2023-02-27T21:12:24.441Z,99930.14
2023-02-27T21:15:16.601Z,99927.64
2023-02-27T21:18:09.133Z,99930.05
2023-02-27T21:21:05.501Z,99927.44
2023-02-27T21:23:58.115Z,99925.87
2023-02-27T21:26:50.730Z,99925.19
2023-02-27T21:29:42.823Z,99923.61
2023-02-27T21:32:32.244Z,99920.56
2023-02-27T21:35:24.433Z,99921.77
2023-02-27T21:38:17.460Z,99925.53
2023-02-27T21:40:58.973Z,99932.06
2023-02-27T21:43:51.134Z,99932.95
2023-02-27T21:46:43.523Z,99934.64
2023-02-27T21:49:35.655Z,99936.92
2023-02-27T21:52:27.692Z,99936.98
2023-02-27T21:55:19.893Z,99936.16
2023-02-27T21:58:04.296Z,99934.48
2023-02-27T22:00:56.462Z,99936.56
2023-02-27T22:03:53.314Z,99935.55
2023-02-27T22:06:45.577Z,99940.40
2023-02-27T22:09:37.703Z,99936.58
2023-02-27T22:12:29.829Z,99943.04
2023-02-27T22:15:12.578Z,99940.13
2023-02-27T22:17:55.562Z,99941.71
2023-02-27T22:20:47.793Z,99937.02
2023-02-27T22:23:40.459Z,99933.00
2023-02-27T22:26:24.096Z,99934.42
2023-02-27T22:29:17.053Z,99934.21
2023-02-27T22:31:51.782Z,99940.52
2023-02-27T22:34:32.601Z,99939.27
2023-02-27T22:37:24.627Z,99945.50
2023-02-27T22:40:18.758Z,99947.79
2023-02-27T22:42:53.615Z,99938.21
2023-02-27T22:45:49.228Z,99946.79
2023-02-27T22:48:38.550Z,99950.39
2023-02-27T22:51:31.662Z,99950.14
2023-02-27T22:54:25.029Z,99958.08
2023-02-27T22:57:17.228Z,99952.89
2023-02-27T22:59:52.991Z,99953.71
2023-02-27T23:02:45.059Z,99950.46
2023-02-27T23:05:37.979Z,99949.96
2023-02-27T23:08:30.116Z,99949.24
2023-02-27T23:11:22.875Z,99952.52
2023-02-27T23:14:12.778Z,99956.71
2023-02-27T23:17:04.965Z,99959.61
2023-02-27T23:19:57.137Z,99962.05
2023-02-27T23:22:49.430Z,99960.96
2023-02-27T23:25:41.627Z,99956.81
2023-02-27T23:28:34.918Z,99960.22
2023-02-27T23:31:27.522Z,99960.38
2023-02-27T23:34:19.952Z,99960.85
2023-02-27T23:37:12.472Z,99957.38
2023-02-27T23:40:06.607Z,99959.45
2023-02-27T23:43:03.474Z,99959.95
2023-02-27T23:45:55.589Z,99958.73
2023-02-27T23:48:48.643Z,99958.92
2023-02-27T23:51:41.077Z,99967.83
2023-02-27T23:54:23.332Z,99965.45
2023-02-27T23:57:15.442Z,99965.59
